sensor_id;sensor_type;location;lat;lon;timestamp;pressure;altitude;pressure_sealevel;temperature;humidity
71791;BME280;59638;52.126;5.434;2024-01-06T00:00:01;100426.81;;;4.64;100.00
71791;BME280;59638;52.126;5.434;2024-01-06T00:02:28;100425.34;;;4.60;100.00
71791;BME280;59638;52.126;5.434;2024-01-06T00:04:54;100429.63;;;4.61;100.00
71791;BME280;59638;52.126;5.434;2024-01-06T00:07:21;100439.19;;;4.62;100.00
71791;BME280;59638;52.126;5.434;2024-01-06T00:09:47;100440.94;;;4.62;100.00
71791;BME280;59638;52.126;5.434;2024-01-06T00:12:14;100440.22;;;4.60;100.00
71791;BME280;59638;52.126;5.434;2024-01-06T00:14:41;100439.50;;;4.58;100.00
71791;BME280;59638;52.126;5.434;2024-01-06T00:17:10;100444.72;;;4.58;100.00
71791;BME280;59638;52.126;5.434;2024-01-06T00:19:36;100453.59;;;4.55;100.00
71791;BME280;59638;52.126;5.434;2024-01-06T00:22:03;100458.09;;;4.53;100.00
71791;BME280;59638;52.126;5.434;2024-01-06T00:24:29;100471.88;;;4.55;100.00
71791;BME280;59638;52.126;5.434;2024-01-06T00:26:56;100470.47;;;4.51;100.00
71791;BME280;59638;52.126;5.434;2024-01-06T00:29:22;100473.38;;;4.47;100.00
71791;BME280;59638;52.126;5.434;2024-01-06T00:31:49;100478.72;;;4.45;100.00
71791;BME280;59638;52.126;5.434;2024-01-06T00:34:23;100472.88;;;4.42;100.00
71791;BME280;59638;52.126;5.434;2024-01-06T00:36:49;100468.81;;;4.38;100.00
71791;BME280;59638;52.126;5.434;2024-01-06T00:39:16;100466.75;;;4.30;100.00
71791;BME280;59638;52.126;5.434;2024-01-06T00:41:42;100472.38;;;4.24;100.00
71791;BME280;59638;52.126;5.434;2024-01-06T00:44:09;100474.16;;;4.23;100.00
71791;BME280;59638;52.126;5.434;2024-01-06T00:46:35;100482.72;;;4.25;100.00
71791;BME280;59638;52.126;5.434;2024-01-06T00:49:02;100483.56;;;4.26;100.00
71791;BME280;59638;52.126;5.434;2024-01-06T00:51:28;100479.28;;;4.25;100.00
71791;BME280;59638;52.126;5.434;2024-01-06T00:53:55;100487.84;;;4.27;100.00
71791;BME280;59638;52.126;5.434;2024-01-06T00:56:22;100482.63;;;4.27;100.00
71791;BME280;59638;52.126;5.434;2024-01-06T00:58:50;100484.50;;;4.25;100.00
71791;BME280;59638;52.126;5.434;2024-01-06T01:01:17;100476.78;;;4.23;100.00
71791;BME280;59638;52.126;5.434;2024-01-06T01:03:43;100486.59;;;4.20;100.00
71791;BME280;59638;52.126;5.434;2024-01-06T01:06:10;100493.47;;;4.21;100.00
71791;BME280;59638;52.126;5.434;2024-01-06T01:08:37;100497.03;;;4.20;100.00
71791;BME280;59638;52.126;5.434;2024-01-06T01:11:03;100497.03;;;4.20;100.00
71791;BME280;59638;52.126;5.434;2024-01-06T01:13:30;100504.16;;;4.18;100.00
71791;BME280;59638;52.126;5.434;2024-01-06T01:15:57;100507.91;;;4.14;100.00
71791;BME280;59638;52.126;5.434;2024-01-06T01:18:23;100513.97;;;4.14;100.00
71791;BME280;59638;52.126;5.434;2024-01-06T01:20:50;100516.69;;;4.13;100.00
71791;BME280;59638;52.126;5.434;2024-01-06T01:23:16;100521.28;;;4.09;100.00
71791;BME280;59638;52.126;5.434;2024-01-06T01:25:43;100529.22;;;4.07;100.00
71791;BME280;59638;52.126;5.434;2024-01-06T01:28:09;100519.00;;;4.04;100.00
71791;BME280;59638;52.126;5.434;2024-01-06T01:30:35;100527.97;;;4.00;100.00
71791;BME280;59638;52.126;5.434;2024-01-06T01:33:02;100525.56;;;3.97;100.00
71791;BME280;59638;52.126;5.434;2024-01-06T01:35:29;100533.41;;;3.97;100.00
71791;BME280;59638;52.126;5.434;2024-01-06T01:37:55;100534.34;;;3.96;100.00
71791;BME280;59638;52.126;5.434;2024-01-06T01:40:22;100543.31;;;3.92;100.00
71791;BME280;59638;52.126;5.434;2024-01-06T01:42:48;100553.03;;;3.90;100.00
71791;BME280;59638;52.126;5.434;2024-01-06T01:45:15;100556.56;;;3.89;100.00
71791;BME280;59638;52.126;5.434;2024-01-06T01:47:41;100565.34;;;3.88;100.00
71791;BME280;59638;52.126;5.434;2024-01-06T01:50:09;100567.00;;;3.89;100.00
71791;BME280;59638;52.126;5.434;2024-01-06T01:52:36;100557.59;;;3.87;100.00
71791;BME280;59638;52.126;5.434;2024-01-06T01:55:03;100578.59;;;3.85;100.00
71791;BME280;59638;52.126;5.434;2024-01-06T01:57:30;100575.16;;;3.85;100.00
71791;BME280;59638;52.126;5.434;2024-01-06T01:59:57;100575.28;;;3.83;100.00
71791;BME280;59638;52.126;5.434;2024-01-06T02:02:23;100573.56;;;3.82;100.00
71791;BME280;59638;52.126;5.434;2024-01-06T02:04:50;100581.41;;;3.82;100.00
71791;BME280;59638;52.126;5.434;2024-01-06T02:07:16;100581.41;;;3.82;100.00
71791;BME280;59638;52.126;5.434;2024-01-06T02:09:43;100584.13;;;3.80;100.00
71791;BME280;59638;52.126;5.434;2024-01-06T02:12:10;100581.41;;;3.82;100.00
71791;BME280;59638;52.126;5.434;2024-01-06T02:14:36;100579.72;;;3.81;100.00
71791;BME280;59638;52.126;5.434;2024-01-06T02:17:04;100585.91;;;3.80;100.00
71791;BME280;59638;52.126;5.434;2024-01-06T02:19:30;100589.34;;;3.80;100.00
71791;BME280;59638;52.126;5.434;2024-01-06T02:21:57;100587.56;;;3.81;100.00
71791;BME280;59638;52.126;5.434;2024-01-06T02:24:23;100593.63;;;3.81;100.00
71791;BME280;59638;52.126;5.434;2024-01-06T02:26:50;100594.66;;;3.79;100.00
71791;BME280;59638;52.126;5.434;2024-01-06T02:29:17;100593.72;;;3.80;100.00
71791;BME280;59638;52.126;5.434;2024-01-06T02:31:43;100599.69;;;3.82;100.00
71791;BME280;59638;52.126;5.434;2024-01-06T02:34:10;100597.00;;;3.84;100.00
71791;BME280;59638;52.126;5.434;2024-01-06T02:36:37;100604.00;;;3.83;100.00
71791;BME280;59638;52.126;5.434;2024-01-06T02:39:03;100609.00;;;3.86;100.00
71791;BME280;59638;52.126;5.434;2024-01-06T02:41:30;100622.78;;;3.88;100.00
71791;BME280;59638;52.126;5.434;2024-01-06T02:43:56;100619.44;;;3.86;100.00
71791;BME280;59638;52.126;5.434;2024-01-06T02:46:23;100618.59;;;3.86;100.00
71791;BME280;59638;52.126;5.434;2024-01-06T02:48:49;100624.44;;;3.89;100.00
71791;BME280;59638;52.126;5.434;2024-01-06T02:51:16;100628.22;;;3.85;100.00
71791;BME280;59638;52.126;5.434;2024-01-06T02:53:42;100633.63;;;3.82;100.00
71791;BME280;59638;52.126;5.434;2024-01-06T02:56:10;100627.56;;;3.81;100.00
71791;BME280;59638;52.126;5.434;2024-01-06T02:58:38;100631.94;;;3.81;100.00
71791;BME280;59638;52.126;5.434;2024-01-06T03:01:04;100629.34;;;3.81;100.00
71791;BME280;59638;52.126;5.434;2024-01-06T03:03:31;100633.63;;;3.82;100.00
71791;BME280;59638;52.126;5.434;2024-01-06T03:05:57;100636.16;;;3.84;100.00
71791;BME280;59638;52.126;5.434;2024-01-06T03:08:24;100637.16;;;3.81;100.00
71791;BME280;59638;52.126;5.434;2024-01-06T03:10:50;100638.50;;;3.74;100.00
71791;BME280;59638;52.126;5.434;2024-01-06T03:13:17;100639.44;;;3.73;100.00
71791;BME280;59638;52.126;5.434;2024-01-06T03:15:43;100643.00;;;3.72;100.00
71791;BME280;59638;52.126;5.434;2024-01-06T03:18:10;100644.13;;;3.68;100.00
71791;BME280;59638;52.126;5.434;2024-01-06T03:20:36;100653.63;;;3.69;100.00
71791;BME280;59638;52.126;5.434;2024-01-06T03:23:03;100659.78;;;3.68;100.00
71791;BME280;59638;52.126;5.434;2024-01-06T03:25:29;100668.44;;;3.68;100.00
71791;BME280;59638;52.126;5.434;2024-01-06T03:27:56;100664.91;;;3.69;100.00
71791;BME280;59638;52.126;5.434;2024-01-06T03:30:22;100668.28;;;3.71;100.00
71791;BME280;59638;52.126;5.434;2024-01-06T03:32:49;100668.56;;;3.67;100.00
71791;BME280;59638;52.126;5.434;2024-01-06T03:35:15;100672.22;;;3.64;100.00
71791;BME280;59638;52.126;5.434;2024-01-06T03:37:43;100682.66;;;3.64;100.00
71791;BME280;59638;52.126;5.434;2024-01-06T03:40:10;100689.53;;;3.65;100.00
71791;BME280;59638;52.126;5.434;2024-01-06T03:42:36;100688.69;;;3.65;100.00
71791;BME280;59638;52.126;5.434;2024-01-06T03:45:03;100695.59;;;3.66;100.00
71791;BME280;59638;52.126;5.434;2024-01-06T03:47:30;100695.59;;;3.66;100.00
71791;BME280;59638;52.126;5.434;2024-01-06T03:49:56;100702.47;;;3.67;100.00
71791;BME280;59638;52.126;5.434;2024-01-06T03:52:23;100695.50;;;3.67;100.00
71791;BME280;59638;52.126;5.434;2024-01-06T03:54:49;100704.38;;;3.65;100.00
71791;BME280;59638;52.126;5.434;2024-01-06T03:57:16;100701.00;;;3.63;100.00
71791;BME280;59638;52.126;5.434;2024-01-06T03:59:42;100712.19;;;3.65;100.00
71791;BME280;59638;52.126;5.434;2024-01-06T04:02:09;100712.31;;;3.63;100.00
71791;BME280;59638;52.126;5.434;2024-01-06T04:04:35;100719.47;;;3.60;100.00
71791;BME280;59638;52.126;5.434;2024-01-06T04:07:02;100721.34;;;3.58;100.00
71791;BME280;59638;52.126;5.434;2024-01-06T04:09:28;100725.81;;;3.55;100.00
71791;BME280;59638;52.126;5.434;2024-01-06T04:11:55;100727.69;;;3.53;100.00
71791;BME280;59638;52.126;5.434;2024-01-06T04:14:21;100723.28;;;3.54;100.00
71791;BME280;59638;52.126;5.434;2024-01-06T04:16:48;100724.34;;;3.51;100.00
71791;BME280;59638;52.126;5.434;2024-01-06T04:19:14;100724.50;;;3.48;100.00
71791;BME280;59638;52.126;5.434;2024-01-06T04:21:41;100722.84;;;3.47;100.00
71791;BME280;59638;52.126;5.434;2024-01-06T04:24:08;100724.72;;;3.45;100.00
71791;BME280;59638;52.126;5.434;2024-01-06T04:26:35;100723.03;;;3.44;100.00
71791;BME280;59638;52.126;5.434;2024-01-06T04:29:01;100729.09;;;3.45;100.00
71791;BME280;59638;52.126;5.434;2024-01-06T04:31:28;100729.94;;;3.45;100.00
71791;BME280;59638;52.126;5.434;2024-01-06T04:33:54;100726.56;;;3.43;100.00
71791;BME280;59638;52.126;5.434;2024-01-06T04:36:21;100733.56;;;3.43;100.00
71791;BME280;59638;52.126;5.434;2024-01-06T04:38:47;100731.72;;;3.45;100.00
71791;BME280;59638;52.126;5.434;2024-01-06T04:41:14;100737.75;;;3.45;100.00
71791;BME280;59638;52.126;5.434;2024-01-06T04:43:40;100745.75;;;3.42;100.00
71791;BME280;59638;52.126;5.434;2024-01-06T04:46:06;100748.66;;;3.38;100.00
71791;BME280;59638;52.126;5.434;2024-01-06T04:48:33;100751.34;;;3.36;100.00
71791;BME280;59638;52.126;5.434;2024-01-06T04:50:59;100746.34;;;3.33;100.00
71791;BME280;59638;52.126;5.434;2024-01-06T04:53:26;100746.03;;;3.23;100.00
71791;BME280;59638;52.126;5.434;2024-01-06T04:55:52;100749.88;;;3.18;100.00
71791;BME280;59638;52.126;5.434;2024-01-06T04:58:19;100752.66;;;3.15;100.00
71791;BME280;59638;52.126;5.434;2024-01-06T05:00:46;100762.34;;;3.13;100.00
71791;BME280;59638;52.126;5.434;2024-01-06T05:03:12;100761.41;;;3.14;100.00
71791;BME280;59638;52.126;5.434;2024-01-06T05:05:39;100763.47;;;3.09;100.00
71791;BME280;59638;52.126;5.434;2024-01-06T05:08:05;100770.19;;;3.13;100.00
71791;BME280;59638;52.126;5.434;2024-01-06T05:10:32;100771.03;;;3.13;100.00
71791;BME280;59638;52.126;5.434;2024-01-06T05:12:58;100775.50;;;3.11;100.00
71791;BME280;59638;52.126;5.434;2024-01-06T05:15:25;100776.59;;;3.07;100.00
71791;BME280;59638;52.126;5.434;2024-01-06T05:17:51;100787.88;;;3.08;100.00
71791;BME280;59638;52.126;5.434;2024-01-06T05:20:18;100786.19;;;3.07;100.00
71791;BME280;59638;52.126;5.434;2024-01-06T05:22:45;100788.69;;;3.08;100.00
71791;BME280;59638;52.126;5.434;2024-01-06T05:25:11;100791.41;;;3.07;100.00
71791;BME280;59638;52.126;5.434;2024-01-06T05:27:38;100799.22;;;3.07;100.00
71791;BME280;59638;52.126;5.434;2024-01-06T05:30:05;100804.59;;;3.04;100.00
71791;BME280;59638;52.126;5.434;2024-01-06T05:32:32;100803.88;;;3.02;100.00
71791;BME280;59638;52.126;5.434;2024-01-06T05:34:59;100805.75;;;2.99;100.00
71791;BME280;59638;52.126;5.434;2024-01-06T05:37:25;100811.78;;;3.00;100.00
71791;BME280;59638;52.126;5.434;2024-01-06T05:39:52;100806.56;;;3.00;100.00
71791;BME280;59638;52.126;5.434;2024-01-06T05:42:18;100817.09;;;2.98;100.00
71791;BME280;59638;52.126;5.434;2024-01-06T05:44:45;100821.53;;;2.96;100.00
71791;BME280;59638;52.126;5.434;2024-01-06T05:47:12;100820.81;;;2.94;100.00
71791;BME280;59638;52.126;5.434;2024-01-06T05:49:41;100823.25;;;2.97;100.00
71791;BME280;59638;52.126;5.434;2024-01-06T05:52:10;100827.34;;;3.02;100.00
71791;BME280;59638;52.126;5.434;2024-01-06T05:54:36;100821.19;;;3.03;100.00
71791;BME280;59638;52.126;5.434;2024-01-06T05:57:06;100827.59;;;2.97;100.00
71791;BME280;59638;52.126;5.434;2024-01-06T05:59:33;100827.78;;;2.94;100.00
71791;BME280;59638;52.126;5.434;2024-01-06T06:01:59;100836.06;;;2.86;100.00
71791;BME280;59638;52.126;5.434;2024-01-06T06:04:26;100846.84;;;2.80;100.00
71791;BME280;59638;52.126;5.434;2024-01-06T06:06:53;100846.00;;;2.80;100.00
71791;BME280;59638;52.126;5.434;2024-01-06T06:09:19;100852.22;;;2.77;100.00
71791;BME280;59638;52.126;5.434;2024-01-06T06:11:48;100855.94;;;2.73;100.00
71791;BME280;59638;52.126;5.434;2024-01-06T06:14:14;100852.59;;;2.71;100.00
71791;BME280;59638;52.126;5.434;2024-01-06T06:16:41;100856.94;;;2.70;100.00
71791;BME280;59638;52.126;5.434;2024-01-06T06:19:07;100872.66;;;2.69;100.00
71791;BME280;59638;52.126;5.434;2024-01-06T06:21:34;100870.25;;;2.66;100.00
71791;BME280;59638;52.126;5.434;2024-01-06T06:24:01;100867.63;;;2.66;100.00
71791;BME280;59638;52.126;5.434;2024-01-06T06:26:28;100871.72;;;2.70;100.00
71791;BME280;59638;52.126;5.434;2024-01-06T06:28:54;100875.47;;;2.66;100.00
71791;BME280;59638;52.126;5.434;2024-01-06T06:31:21;100879.06;;;2.63;100.00
71791;BME280;59638;52.126;5.434;2024-01-06T06:33:47;100891.44;;;2.60;100.00
71791;BME280;59638;52.126;5.434;2024-01-06T06:36:14;100894.97;;;2.59;100.00
71791;BME280;59638;52.126;5.434;2024-01-06T06:38:40;100884.53;;;2.59;100.00
71791;BME280;59638;52.126;5.434;2024-01-06T06:41:07;100894.78;;;2.62;100.00
71791;BME280;59638;52.126;5.434;2024-01-06T06:43:33;100910.41;;;2.62;100.00
71791;BME280;59638;52.126;5.434;2024-01-06T06:46:00;100910.59;;;2.59;100.00
71791;BME280;59638;52.126;5.434;2024-01-06T06:48:26;100918.34;;;2.60;100.00
71791;BME280;59638;52.126;5.434;2024-01-06T06:50:53;100918.44;;;2.59;100.00
71791;BME280;59638;52.126;5.434;2024-01-06T06:53:19;100918.56;;;2.56;100.00
71791;BME280;59638;52.126;5.434;2024-01-06T06:55:46;100922.72;;;2.60;100.00
71791;BME280;59638;52.126;5.434;2024-01-06T06:58:13;100932.94;;;2.63;100.00
71791;BME280;59638;52.126;5.434;2024-01-06T07:00:39;100931.94;;;2.65;100.00
71791;BME280;59638;52.126;5.434;2024-01-06T07:03:06;100940.59;;;2.66;100.00
71791;BME280;59638;52.126;5.434;2024-01-06T07:05:33;100936.16;;;2.68;100.00
71791;BME280;59638;52.126;5.434;2024-01-06T07:08:00;100937.81;;;2.69;100.00
71791;BME280;59638;52.126;5.434;2024-01-06T07:10:27;100943.03;;;2.69;100.00
71791;BME280;59638;52.126;5.434;2024-01-06T07:12:53;100951.78;;;2.68;100.00
71791;BME280;59638;52.126;5.434;2024-01-06T07:15:20;100951.78;;;2.68;100.00
71791;BME280;59638;52.126;5.434;2024-01-06T07:17:46;100964.81;;;2.68;100.00
71791;BME280;59638;52.126;5.434;2024-01-06T07:20:13;100965.56;;;2.70;100.00
71791;BME280;59638;52.126;5.434;2024-01-06T07:22:40;100974.31;;;2.69;100.00
71791;BME280;59638;52.126;5.434;2024-01-06T07:25:07;100972.63;;;2.68;100.00
71791;BME280;59638;52.126;5.434;2024-01-06T07:27:34;100977.84;;;2.68;100.00
71791;BME280;59638;52.126;5.434;2024-01-06T07:30:00;100974.31;;;2.69;100.00
71791;BME280;59638;52.126;5.434;2024-01-06T07:32:27;100975.31;;;2.66;100.00
71791;BME280;59638;52.126;5.434;2024-01-06T07:34:53;100982.13;;;2.69;100.00
71791;BME280;59638;52.126;5.434;2024-01-06T07:37:20;100981.19;;;2.70;100.00
71791;BME280;59638;52.126;5.434;2024-01-06T07:39:46;100980.31;;;2.71;100.00
71791;BME280;59638;52.126;5.434;2024-01-06T07:42:13;100992.41;;;2.72;100.00
71791;BME280;59638;52.126;5.434;2024-01-06T07:44:39;101000.22;;;2.72;100.00
71791;BME280;59638;52.126;5.434;2024-01-06T07:47:06;101000.22;;;2.72;100.00
71791;BME280;59638;52.126;5.434;2024-01-06T07:49:32;101005.25;;;2.75;100.00
71791;BME280;59638;52.126;5.434;2024-01-06T07:51:59;101012.97;;;2.77;100.00
71791;BME280;59638;52.126;5.434;2024-01-06T07:54:26;101014.69;;;2.78;100.00
71791;BME280;59638;52.126;5.434;2024-01-06T07:56:53;101019.81;;;2.79;100.00
71791;BME280;59638;52.126;5.434;2024-01-06T07:59:19;101026.84;;;2.77;100.00
71791;BME280;59638;52.126;5.434;2024-01-06T08:01:46;101012.16;;;2.76;100.00
71791;BME280;59638;52.126;5.434;2024-01-06T08:04:12;101019.03;;;2.77;100.00
71791;BME280;59638;52.126;5.434;2024-01-06T08:06:39;101026.84;;;2.77;100.00
71791;BME280;59638;52.126;5.434;2024-01-06T08:09:05;101033.84;;;2.77;100.00
71791;BME280;59638;52.126;5.434;2024-01-06T08:11:32;101036.38;;;2.78;100.00
71791;BME280;59638;52.126;5.434;2024-01-06T08:13:58;101039.88;;;2.77;100.00
71791;BME280;59638;52.126;5.434;2024-01-06T08:16:25;101046.81;;;2.78;100.00
71791;BME280;59638;52.126;5.434;2024-01-06T08:18:51;101054.63;;;2.78;100.00
71791;BME280;59638;52.126;5.434;2024-01-06T08:21:18;101052.03;;;2.78;100.00
71791;BME280;59638;52.126;5.434;2024-01-06T08:23:45;101050.16;;;2.80;100.00
71791;BME280;59638;52.126;5.434;2024-01-06T08:26:12;101053.69;;;2.79;100.00
71791;BME280;59638;52.126;5.434;2024-01-06T08:28:39;101051.84;;;2.81;100.00
71791;BME280;59638;52.126;5.434;2024-01-06T08:31:05;101049.97;;;2.83;100.00
71791;BME280;59638;52.126;5.434;2024-01-06T08:33:32;101070.00;;;2.83;100.00
71791;BME280;59638;52.126;5.434;2024-01-06T08:35:58;101063.81;;;2.85;100.00
71791;BME280;59638;52.126;5.434;2024-01-06T08:38:26;101064.72;;;2.84;100.00
71791;BME280;59638;52.126;5.434;2024-01-06T08:40:52;101073.38;;;2.85;100.00
71791;BME280;59638;52.126;5.434;2024-01-06T08:43:20;101068.19;;;2.85;100.00
71791;BME280;59638;52.126;5.434;2024-01-06T08:45:46;101079.25;;;2.88;100.00
71791;BME280;59638;52.126;5.434;2024-01-06T08:48:14;101094.91;;;2.88;100.00
71791;BME280;59638;52.126;5.434;2024-01-06T08:50:42;101088.00;;;2.87;100.00
71791;BME280;59638;52.126;5.434;2024-01-06T08:53:08;101100.13;;;2.88;100.00
71791;BME280;59638;52.126;5.434;2024-01-06T08:55:35;101110.56;;;2.88;100.00
71791;BME280;59638;52.126;5.434;2024-01-06T08:58:01;101108.78;;;2.89;100.00
71791;BME280;59638;52.126;5.434;2024-01-06T09:00:28;101111.47;;;2.87;100.00
71791;BME280;59638;52.126;5.434;2024-01-06T09:02:54;101111.31;;;2.90;100.00
71791;BME280;59638;52.126;5.434;2024-01-06T09:05:21;101118.38;;;2.88;100.00
71791;BME280;59638;52.126;5.434;2024-01-06T09:07:48;101121.16;;;2.85;100.00
71791;BME280;59638;52.126;5.434;2024-01-06T09:10:20;101129.72;;;2.87;100.00
71791;BME280;59638;52.126;5.434;2024-01-06T09:12:47;101142.84;;;2.86;100.00
71791;BME280;59638;52.126;5.434;2024-01-06T09:15:14;101136.84;;;2.84;100.00
71791;BME280;59638;52.126;5.434;2024-01-06T09:17:40;101141.84;;;2.88;100.00
71791;BME280;59638;52.126;5.434;2024-01-06T09:20:07;101136.47;;;2.91;100.00
71791;BME280;59638;52.126;5.434;2024-01-06T09:22:34;101144.13;;;2.94;100.00
71791;BME280;59638;52.126;5.434;2024-01-06T09:25:00;101145.81;;;2.95;100.00
71791;BME280;59638;52.126;5.434;2024-01-06T09:27:27;101149.09;;;2.99;100.00
71791;BME280;59638;52.126;5.434;2024-01-06T09:29:53;101167.09;;;3.04;100.00
71791;BME280;59638;52.126;5.434;2024-01-06T09:32:20;101164.34;;;3.07;100.00
71791;BME280;59638;52.126;5.434;2024-01-06T09:34:49;101169.69;;;3.04;100.00
71791;BME280;59638;52.126;5.434;2024-01-06T09:37:15;101166.19;;;3.05;100.00
71791;BME280;59638;52.126;5.434;2024-01-06T09:39:42;101173.69;;;3.11;100.00
71791;BME280;59638;52.126;5.434;2024-01-06T09:42:09;101176.03;;;3.15;100.00
71791;BME280;59638;52.126;5.434;2024-01-06T09:44:37;101185.63;;;3.15;100.00
71791;BME280;59638;52.126;5.434;2024-01-06T09:47:03;101184.13;;;3.11;100.00
71791;BME280;59638;52.126;5.434;2024-01-06T09:49:32;101191.94;;;3.11;100.00
71791;BME280;59638;52.126;5.434;2024-01-06T09:51:59;101194.56;;;3.11;100.00
71791;BME280;59638;52.126;5.434;2024-01-06T09:54:29;101194.38;;;3.14;100.00
71791;BME280;59638;52.126;5.434;2024-01-06T09:57:02;101187.91;;;3.21;100.00
71791;BME280;59638;52.126;5.434;2024-01-06T09:59:30;101194.91;;;3.20;100.00
71791;BME280;59638;52.126;5.434;2024-01-06T10:02:01;101197.59;;;3.19;100.00
71791;BME280;59638;52.126;5.434;2024-01-06T10:04:30;101201.19;;;3.16;100.00
71791;BME280;59638;52.126;5.434;2024-01-06T10:06:56;101202.81;;;3.19;100.00
71791;BME280;59638;52.126;5.434;2024-01-06T10:09:27;101204.59;;;3.18;100.00
71791;BME280;59638;52.126;5.434;2024-01-06T10:11:55;101217.69;;;3.17;100.00
71791;BME280;59638;52.126;5.434;2024-01-06T10:14:24;101208.03;;;3.19;100.00
71791;BME280;59638;52.126;5.434;2024-01-06T10:16:52;101222.97;;;3.15;100.00
71791;BME280;59638;52.126;5.434;2024-01-06T10:19:19;101237.13;;;3.11;100.00
71791;BME280;59638;52.126;5.434;2024-01-06T10:21:46;101219.53;;;3.15;100.00
71791;BME280;59638;52.126;5.434;2024-01-06T10:24:12;101231.59;;;3.17;100.00
71791;BME280;59638;52.126;5.434;2024-01-06T10:26:40;101232.59;;;3.15;100.00
71791;BME280;59638;52.126;5.434;2024-01-06T10:29:06;101237.66;;;3.18;100.00
71791;BME280;59638;52.126;5.434;2024-01-06T10:31:33;101237.66;;;3.18;100.00
71791;BME280;59638;52.126;5.434;2024-01-06T10:34:00;101241.00;;;3.20;100.00
71791;BME280;59638;52.126;5.434;2024-01-06T10:36:28;101243.53;;;3.21;100.00
71791;BME280;59638;52.126;5.434;2024-01-06T10:38:55;101255.75;;;3.21;100.00
71791;BME280;59638;52.126;5.434;2024-01-06T10:41:22;101251.44;;;3.20;100.00
71791;BME280;59638;52.126;5.434;2024-01-06T10:43:50;101250.59;;;3.19;100.00
71791;BME280;59638;52.126;5.434;2024-01-06T10:46:18;101254.06;;;3.20;100.00
71791;BME280;59638;52.126;5.434;2024-01-06T10:48:45;101251.53;;;3.18;100.00
71791;BME280;59638;52.126;5.434;2024-01-06T10:51:13;101262.81;;;3.19;100.00
71791;BME280;59638;52.126;5.434;2024-01-06T10:53:41;101249.16;;;3.14;100.00
71791;BME280;59638;52.126;5.434;2024-01-06T10:56:08;101260.34;;;3.16;100.00
71791;BME280;59638;52.126;5.434;2024-01-06T10:58:37;101263.72;;;3.18;100.00
71791;BME280;59638;52.126;5.434;2024-01-06T11:01:09;101259.41;;;3.17;100.00
71791;BME280;59638;52.126;5.434;2024-01-06T11:03:37;101259.50;;;3.15;100.00
71791;BME280;59638;52.126;5.434;2024-01-06T11:06:06;101254.38;;;3.14;100.00
71791;BME280;59638;52.126;5.434;2024-01-06T11:08:36;101267.41;;;3.14;100.00
71791;BME280;59638;52.126;5.434;2024-01-06T11:11:05;101268.94;;;3.18;100.00
71791;BME280;59638;52.126;5.434;2024-01-06T11:13:32;101272.31;;;3.20;100.00
71791;BME280;59638;52.126;5.434;2024-01-06T11:15:58;101274.00;;;3.21;100.00
71791;BME280;59638;52.126;5.434;2024-01-06T11:18:35;101271.31;;;3.22;100.00
71791;BME280;59638;52.126;5.434;2024-01-06T11:21:17;101274.44;;;3.29;100.00
71791;BME280;59638;52.126;5.434;2024-01-06T11:26:33;101276.00;;;3.49;100.00
71791;BME280;59638;52.126;5.434;2024-01-06T11:29:00;101276.16;;;3.46;100.00
71791;BME280;59638;52.126;5.434;2024-01-06T11:31:31;101270.19;;;3.44;100.00
71791;BME280;59638;52.126;5.434;2024-01-06T11:34:12;101269.19;;;3.46;100.00
71791;BME280;59638;52.126;5.434;2024-01-06T11:36:40;101274.41;;;3.46;100.00
71791;BME280;59638;52.126;5.434;2024-01-06T11:39:06;101271.34;;;3.38;100.00
71791;BME280;59638;52.126;5.434;2024-01-06T11:41:49;101279.94;;;3.40;100.00
71791;BME280;59638;52.126;5.434;2024-01-06T11:44:22;101277.41;;;3.39;100.00
71791;BME280;59638;52.126;5.434;2024-01-06T11:46:48;101279.75;;;3.43;100.00
71791;BME280;59638;52.126;5.434;2024-01-06T11:49:20;101278.25;;;3.39;100.00
71791;BME280;59638;52.126;5.434;2024-01-06T11:51:47;101276.41;;;3.41;100.00
71791;BME280;59638;52.126;5.434;2024-01-06T11:54:14;101278.50;;;3.35;100.00
71791;BME280;59638;52.126;5.434;2024-01-06T11:56:40;101273.34;;;3.33;100.00
71791;BME280;59638;52.126;5.434;2024-01-06T11:59:07;101278.41;;;3.36;100.00
71791;BME280;59638;52.126;5.434;2024-01-06T12:01:40;101279.41;;;3.34;100.00
71791;BME280;59638;52.126;5.434;2024-01-06T12:04:07;101279.50;;;3.32;100.00
71791;BME280;59638;52.126;5.434;2024-01-06T12:06:34;101277.22;;;3.26;100.00
71791;BME280;59638;52.126;5.434;2024-01-06T12:09:09;101275.69;;;3.22;100.00
71791;BME280;59638;52.126;5.434;2024-01-06T12:11:36;101280.91;;;3.22;100.00
71791;BME280;59638;52.126;5.434;2024-01-06T12:14:03;101284.28;;;3.24;100.00
71791;BME280;59638;52.126;5.434;2024-01-06T12:16:30;101285.97;;;3.25;100.00
71791;BME280;59638;52.126;5.434;2024-01-06T12:18:59;101285.34;;;3.20;100.00
71791;BME280;59638;52.126;5.434;2024-01-06T12:21:27;101288.09;;;3.17;100.00
71791;BME280;59638;52.126;5.434;2024-01-06T12:23:54;101287.28;;;3.16;100.00
71791;BME280;59638;52.126;5.434;2024-01-06T12:26:37;101293.50;;;3.14;100.00
71791;BME280;59638;52.126;5.434;2024-01-06T12:29:04;101298.72;;;3.14;100.00
71791;BME280;59638;52.126;5.434;2024-01-06T12:31:30;101298.72;;;3.14;100.00
71791;BME280;59638;52.126;5.434;2024-01-06T12:33:57;101291.81;;;3.13;100.00
71791;BME280;59638;52.126;5.434;2024-01-06T12:36:24;101295.50;;;3.09;100.00
71791;BME280;59638;52.126;5.434;2024-01-06T12:38:52;101299.88;;;3.08;100.00
71791;BME280;59638;52.126;5.434;2024-01-06T12:41:20;101300.72;;;3.09;100.00
71791;BME280;59638;52.126;5.434;2024-01-06T12:43:47;101293.66;;;3.11;100.00
71791;BME280;59638;52.126;5.434;2024-01-06T12:46:14;101295.50;;;3.09;100.00
71791;BME280;59638;52.126;5.434;2024-01-06T12:48:41;101303.50;;;3.06;100.00
71791;BME280;59638;52.126;5.434;2024-01-06T12:51:08;101299.94;;;3.07;100.00